そらガール!!!

LUXURY FLIGHT

03-6423-7371

羽田本店:東京都大田区羽田5-11-1
営業時間:10:00~20:00
定休日:毎週 月曜日
セントレア店:愛知県常滑市セントレア1-1
営業時間:10:00~20:00 年中無休

lv

そらガール!!!

STAFF BLOG

2019/11/22 そらガール!!!

中部より、こんにちはーーーー

 

RJGG 220630Z 02003KT 9999 FEW010 BKN015 BKN020 12/10 Q1026 NOSIG

 

さて本日は…

先日、ご来店いただいたKさまご一家!

 

 

体験者さまは、飛行機が大好きのお嬢様

コクピットを目にした途端、

 

わぁああああああああああ~~~~~~~~~

 

キャプテンシートに座った感想を聞くと…

 

 

 

「座っただけで感動してます

 

 

 

ドキドキの喜びで、笑いがとまりませんっ!

 

 

そんなお嬢さんの笑顔を見たスタッフも、ワクワクが止まらないと同時に、

この笑顔を10倍、20倍、いや、100倍にするぞ!と気合が入ります!!!

 

最初は多くの皆さまがそうなのですが、

感動+緊張により、操縦桿の動かし方に固さがあって

カクカクしておりましたが…

 

少しアドバイスさせて頂いて、時間が経てば経つほど、

操縦桿さばきが柔らか・なめらか・的確になっていくではありませんか!!!

 

最後は、もちろんスーパー・ウルトラ・スムースランディング!!

ここぞという所でキッチリ決めてくれる女子パイロットが爆誕したところで、体験終了となりました!

 

 

ksama

 

弊社は、お子さま、女性のパイロットも大大大募集中です

 

航空知識をお持ちでない方でも、恥ずかしがること、不安に思われることは何一つございません!

弊社アドバイザーが手取り足取り、ひとつひとつ丁寧にご説明させていただきます!

 

飛行機にご興味をお持ちでしたら、

ぜひ一歩踏み出して「飛行機の操縦する喜び・感動」をご体験していただければ、幸いです!

 

人生なにごとも踏み出さなくては、はじまらない。

 

と、最近つくづく思うスタッフのブログに、

本日もお付き合いいただきまして、ありがとうございましたーーーーーーー!

 

 

 

「感謝」

TOP